sensor_id;sensor_type;location;lat;lon;timestamp;pressure;altitude;pressure_sealevel;temperature;humidity
63395;BME280;49531;-34.520;150.798;2022-11-15T00:01:17;99938.88;;;21.32;57.34
63395;BME280;49531;-34.520;150.798;2022-11-15T00:03:46;99937.00;;;21.27;57.00
63395;BME280;49531;-34.520;150.798;2022-11-15T00:06:18;99936.19;;;21.26;56.80
63395;BME280;49531;-34.520;150.798;2022-11-15T00:08:46;99934.53;;;21.30;57.09
63395;BME280;49531;-34.520;150.798;2022-11-15T00:11:14;99929.69;;;21.27;56.92
63395;BME280;49531;-34.520;150.798;2022-11-15T00:13:42;99932.97;;;21.24;57.06
63395;BME280;49531;-34.520;150.798;2022-11-15T00:16:10;99929.16;;;21.20;57.08
63395;BME280;49531;-34.520;150.798;2022-11-15T00:18:39;99925.38;;;21.21;56.61
63395;BME280;49531;-34.520;150.798;2022-11-15T00:21:10;99925.88;;;21.28;56.51
63395;BME280;49531;-34.520;150.798;2022-11-15T00:23:39;99923.09;;;21.34;57.10
63395;BME280;49531;-34.520;150.798;2022-11-15T00:26:11;99920.59;;;21.42;57.00
63395;BME280;49531;-34.520;150.798;2022-11-15T00:28:39;99917.03;;;21.47;57.48
63395;BME280;49531;-34.520;150.798;2022-11-15T00:31:11;99915.41;;;21.46;57.56
63395;BME280;49531;-34.520;150.798;2022-11-15T00:33:41;99907.53;;;21.44;57.25
63395;BME280;49531;-34.520;150.798;2022-11-15T00:36:10;99909.41;;;21.49;57.33
63395;BME280;49531;-34.520;150.798;2022-11-15T00:38:40;99905.88;;;21.48;57.75
63395;BME280;49531;-34.520;150.798;2022-11-15T00:41:08;99901.50;;;21.52;57.80
63395;BME280;49531;-34.520;150.798;2022-11-15T00:43:37;99902.81;;;21.55;58.12
63395;BME280;49531;-34.520;150.798;2022-11-15T00:46:06;99891.94;;;21.55;58.21
63395;BME280;49531;-34.520;150.798;2022-11-15T00:48:37;99894.09;;;21.58;58.20
63395;BME280;49531;-34.520;150.798;2022-11-15T00:51:05;99896.50;;;21.59;58.32
63395;BME280;49531;-34.520;150.798;2022-11-15T00:53:33;99886.69;;;21.63;58.39
63395;BME280;49531;-34.520;150.798;2022-11-15T00:56:01;99882.81;;;21.70;57.67
63395;BME280;49531;-34.520;150.798;2022-11-15T00:58:30;99884.66;;;21.74;57.58
63395;BME280;49531;-34.520;150.798;2022-11-15T01:01:07;99876.47;;;21.79;57.80
63395;BME280;49531;-34.520;150.798;2022-11-15T01:03:36;99882.94;;;21.83;57.88
63395;BME280;49531;-34.520;150.798;2022-11-15T01:06:05;99874.19;;;21.86;57.84
63395;BME280;49531;-34.520;150.798;2022-11-15T01:08:34;99879.13;;;21.84;57.28
63395;BME280;49531;-34.520;150.798;2022-11-15T01:11:07;99884.56;;;21.84;57.32
63395;BME280;49531;-34.520;150.798;2022-11-15T01:13:37;99878.03;;;21.85;57.48
63395;BME280;49531;-34.520;150.798;2022-11-15T01:16:12;99884.78;;;21.88;57.60
63395;BME280;49531;-34.520;150.798;2022-11-15T01:18:41;99877.97;;;21.90;57.48
63395;BME280;49531;-34.520;150.798;2022-11-15T01:21:10;99866.00;;;21.91;57.37
63395;BME280;49531;-34.520;150.798;2022-11-15T01:23:40;99853.56;;;21.85;57.27
63395;BME280;49531;-34.520;150.798;2022-11-15T01:26:11;99852.16;;;21.88;57.52
63395;BME280;49531;-34.520;150.798;2022-11-15T01:28:40;99854.72;;;21.79;57.40
63395;BME280;49531;-34.520;150.798;2022-11-15T01:31:16;99863.34;;;21.86;57.40
63395;BME280;49531;-34.520;150.798;2022-11-15T01:33:46;99867.44;;;21.84;57.38
63395;BME280;49531;-34.520;150.798;2022-11-15T01:36:16;99860.97;;;21.80;57.13
63395;BME280;49531;-34.520;150.798;2022-11-15T01:38:45;99855.81;;;21.78;56.88
63395;BME280;49531;-34.520;150.798;2022-11-15T01:41:20;99856.09;;;21.77;56.57
63395;BME280;49531;-34.520;150.798;2022-11-15T01:43:53;99839.22;;;21.80;56.31
63395;BME280;49531;-34.520;150.798;2022-11-15T01:46:28;99835.69;;;21.79;56.93
63395;BME280;49531;-34.520;150.798;2022-11-15T01:49:00;99828.00;;;21.86;57.21
63395;BME280;49531;-34.520;150.798;2022-11-15T01:51:32;99823.00;;;21.93;57.00
63395;BME280;49531;-34.520;150.798;2022-11-15T01:54:06;99811.84;;;21.95;57.08
63395;BME280;49531;-34.520;150.798;2022-11-15T01:56:43;99818.31;;;21.99;57.28
63395;BME280;49531;-34.520;150.798;2022-11-15T01:59:13;99816.94;;;22.02;57.56
63395;BME280;49531;-34.520;150.798;2022-11-15T02:01:42;99831.03;;;22.04;57.43
63395;BME280;49531;-34.520;150.798;2022-11-15T02:04:16;99824.00;;;22.03;57.50
63395;BME280;49531;-34.520;150.798;2022-11-15T02:06:45;99816.94;;;22.02;57.35
63395;BME280;49531;-34.520;150.798;2022-11-15T02:09:14;99826.94;;;22.06;57.65
63395;BME280;49531;-34.520;150.798;2022-11-15T02:11:43;99824.22;;;22.06;57.47
63395;BME280;49531;-34.520;150.798;2022-11-15T02:14:12;99826.06;;;22.11;57.42
63395;BME280;49531;-34.520;150.798;2022-11-15T02:26:11;99803.50;;;22.29;58.05
63395;BME280;49531;-34.520;150.798;2022-11-15T02:28:58;99801.38;;;22.26;57.31
63395;BME280;49531;-34.520;150.798;2022-11-15T02:31:55;99808.22;;;22.23;57.38
63395;BME280;49531;-34.520;150.798;2022-11-15T02:37:21;99803.13;;;22.17;56.95
63395;BME280;49531;-34.520;150.798;2022-11-15T02:40:14;99791.66;;;22.20;56.76
63395;BME280;49531;-34.520;150.798;2022-11-15T02:42:53;99781.31;;;22.22;57.07
63395;BME280;49531;-34.520;150.798;2022-11-15T02:45:39;99777.56;;;22.18;56.75
63395;BME280;49531;-34.520;150.798;2022-11-15T02:48:08;99772.69;;;22.15;56.97
63395;BME280;49531;-34.520;150.798;2022-11-15T02:50:37;99770.56;;;22.12;57.40
63395;BME280;49531;-34.520;150.798;2022-11-15T02:53:05;99772.13;;;22.18;57.18
63395;BME280;49531;-34.520;150.798;2022-11-15T02:55:38;99771.66;;;22.11;57.08
63395;BME280;49531;-34.520;150.798;2022-11-15T02:58:32;99773.81;;;22.14;57.15
63395;BME280;49531;-34.520;150.798;2022-11-15T03:01:17;99776.44;;;22.19;57.11
63395;BME280;49531;-34.520;150.798;2022-11-15T03:04:10;99769.63;;;22.21;57.65
63395;BME280;49531;-34.520;150.798;2022-11-15T03:06:57;99775.34;;;22.20;57.61
63395;BME280;49531;-34.520;150.798;2022-11-15T03:09:46;99764.53;;;22.15;57.58
63395;BME280;49531;-34.520;150.798;2022-11-15T03:12:31;99772.13;;;22.18;57.66
63395;BME280;49531;-34.520;150.798;2022-11-15T03:15:16;99770.56;;;22.12;56.89
63395;BME280;49531;-34.520;150.798;2022-11-15T03:17:52;99759.75;;;22.07;57.04
63395;BME280;49531;-34.520;150.798;2022-11-15T03:20:24;99766.53;;;22.09;57.64
63395;BME280;49531;-34.520;150.798;2022-11-15T03:22:57;99759.69;;;22.12;57.13
63395;BME280;49531;-34.520;150.798;2022-11-15T03:25:28;99749.78;;;22.21;57.27
63395;BME280;49531;-34.520;150.798;2022-11-15T03:28:00;99748.06;;;22.25;57.84
63395;BME280;49531;-34.520;150.798;2022-11-15T03:30:32;99742.13;;;22.23;58.21
63395;BME280;49531;-34.520;150.798;2022-11-15T03:33:04;99731.75;;;22.25;57.75
63395;BME280;49531;-34.520;150.798;2022-11-15T03:35:37;99740.13;;;22.28;57.53
63395;BME280;49531;-34.520;150.798;2022-11-15T03:38:23;99732.78;;;22.29;57.62
63395;BME280;49531;-34.520;150.798;2022-11-15T03:40:59;99744.09;;;22.36;58.10
63395;BME280;49531;-34.520;150.798;2022-11-15T03:46:31;99743.75;;;22.24;57.58
63395;BME280;49531;-34.520;150.798;2022-11-15T03:49:08;99731.75;;;22.25;57.62
63395;BME280;49531;-34.520;150.798;2022-11-15T03:51:38;99737.50;;;22.23;57.85
63395;BME280;49531;-34.520;150.798;2022-11-15T03:54:06;99744.25;;;22.26;57.84
63395;BME280;49531;-34.520;150.798;2022-11-15T03:56:34;99736.69;;;22.23;57.33
63395;BME280;49531;-34.520;150.798;2022-11-15T03:59:03;99734.56;;;22.20;57.74
63395;BME280;49531;-34.520;150.798;2022-11-15T04:01:31;99732.56;;;22.25;57.93
63395;BME280;49531;-34.520;150.798;2022-11-15T04:03:59;99724.41;;;22.25;57.65
63395;BME280;49531;-34.520;150.798;2022-11-15T04:06:27;99725.50;;;22.24;58.00
63395;BME280;49531;-34.520;150.798;2022-11-15T04:08:55;99723.09;;;22.23;57.98
63395;BME280;49531;-34.520;150.798;2022-11-15T04:11:23;99718.31;;;22.15;57.88
63395;BME280;49531;-34.520;150.798;2022-11-15T04:13:52;99716.19;;;22.12;58.55
63395;BME280;49531;-34.520;150.798;2022-11-15T04:16:20;99717.50;;;22.14;58.74
63395;BME280;49531;-34.520;150.798;2022-11-15T04:18:48;99719.03;;;22.20;59.12
63395;BME280;49531;-34.520;150.798;2022-11-15T04:21:36;99715.50;;;22.20;59.10
63395;BME280;49531;-34.520;150.798;2022-11-15T04:24:15;99723.66;;;22.20;58.96
63395;BME280;49531;-34.520;150.798;2022-11-15T04:26:43;99712.63;;;22.30;58.78
63395;BME280;49531;-34.520;150.798;2022-11-15T04:29:12;99709.84;;;22.35;58.36
63395;BME280;49531;-34.520;150.798;2022-11-15T04:31:52;99715.16;;;22.40;58.10
63395;BME280;49531;-34.520;150.798;2022-11-15T04:34:20;99723.25;;;22.45;58.29
63395;BME280;49531;-34.520;150.798;2022-11-15T04:36:48;99720.75;;;22.49;58.21
63395;BME280;49531;-34.520;150.798;2022-11-15T04:39:28;99708.47;;;22.51;58.11
63395;BME280;49531;-34.520;150.798;2022-11-15T04:41:56;99711.69;;;22.53;57.92
63395;BME280;49531;-34.520;150.798;2022-11-15T04:44:25;99714.94;;;22.55;57.71
63395;BME280;49531;-34.520;150.798;2022-11-15T04:46:53;99725.22;;;22.58;57.83
63395;BME280;49531;-34.520;150.798;2022-11-15T04:49:21;99714.84;;;22.60;57.77
63395;BME280;49531;-34.520;150.798;2022-11-15T04:51:49;99710.19;;;22.61;57.60
63395;BME280;49531;-34.520;150.798;2022-11-15T04:54:17;99703.34;;;22.63;57.74
63395;BME280;49531;-34.520;150.798;2022-11-15T04:56:45;99709.81;;;22.68;57.44
63395;BME280;49531;-34.520;150.798;2022-11-15T04:59:13;99715.78;;;22.70;57.39
63395;BME280;49531;-34.520;150.798;2022-11-15T05:01:41;99716.28;;;22.72;57.47
63395;BME280;49531;-34.520;150.798;2022-11-15T05:04:09;99714.06;;;22.74;57.18
63395;BME280;49531;-34.520;150.798;2022-11-15T05:06:48;99716.78;;;22.74;57.07
63395;BME280;49531;-34.520;150.798;2022-11-15T05:09:18;99707.88;;;22.54;56.78
63395;BME280;49531;-34.520;150.798;2022-11-15T05:11:47;99710.75;;;22.44;57.11
63395;BME280;49531;-34.520;150.798;2022-11-15T05:14:15;99702.38;;;22.41;56.94
63395;BME280;49531;-34.520;150.798;2022-11-15T05:16:44;99703.19;;;22.41;57.03
63395;BME280;49531;-34.520;150.798;2022-11-15T05:19:12;99700.66;;;22.31;56.95
63395;BME280;49531;-34.520;150.798;2022-11-15T05:21:40;99707.88;;;22.22;57.25
63395;BME280;49531;-34.520;150.798;2022-11-15T05:24:10;99705.75;;;22.19;57.71
63395;BME280;49531;-34.520;150.798;2022-11-15T05:26:38;99707.56;;;22.23;57.91
63395;BME280;49531;-34.520;150.798;2022-11-15T05:29:08;99715.00;;;22.18;57.81
63395;BME280;49531;-34.520;150.798;2022-11-15T05:31:40;99711.09;;;22.24;58.16
63395;BME280;49531;-34.520;150.798;2022-11-15T05:34:09;99713.00;;;22.23;57.64
63395;BME280;49531;-34.520;150.798;2022-11-15T05:36:41;99722.34;;;22.17;57.60
63395;BME280;49531;-34.520;150.798;2022-11-15T05:39:09;99718.53;;;22.18;58.46
63395;BME280;49531;-34.520;150.798;2022-11-15T05:41:43;99716.53;;;22.24;58.21
63395;BME280;49531;-34.520;150.798;2022-11-15T05:44:14;99704.56;;;22.25;58.26
63395;BME280;49531;-34.520;150.798;2022-11-15T05:46:46;99720.06;;;22.06;57.55
63395;BME280;49531;-34.520;150.798;2022-11-15T05:49:17;99722.72;;;22.11;57.77
63395;BME280;49531;-34.520;150.798;2022-11-15T05:51:48;99725.38;;;22.16;57.86
63395;BME280;49531;-34.520;150.798;2022-11-15T05:54:17;99727.78;;;22.17;57.65
63395;BME280;49531;-34.520;150.798;2022-11-15T05:56:45;99724.84;;;22.14;58.08
63395;BME280;49531;-34.520;150.798;2022-11-15T05:59:14;99731.16;;;22.09;57.53
63395;BME280;49531;-34.520;150.798;2022-11-15T06:01:42;99733.16;;;22.04;57.07
63395;BME280;49531;-34.520;150.798;2022-11-15T06:04:10;99733.22;;;21.99;57.65
63395;BME280;49531;-34.520;150.798;2022-11-15T06:06:38;99743.97;;;22.09;57.70
63395;BME280;49531;-34.520;150.798;2022-11-15T06:09:06;99732.50;;;22.12;58.08
63395;BME280;49531;-34.520;150.798;2022-11-15T06:11:34;99745.94;;;22.22;57.64
63395;BME280;49531;-34.520;150.798;2022-11-15T06:14:02;99743.66;;;22.29;57.63
63395;BME280;49531;-34.520;150.798;2022-11-15T06:16:35;99737.19;;;22.25;57.84
63395;BME280;49531;-34.520;150.798;2022-11-15T06:19:05;99749.25;;;22.19;58.44
63395;BME280;49531;-34.520;150.798;2022-11-15T06:21:33;99748.00;;;22.30;57.98
63395;BME280;49531;-34.520;150.798;2022-11-15T06:24:01;99748.94;;;22.39;57.80
63395;BME280;49531;-34.520;150.798;2022-11-15T06:26:29;99760.25;;;22.46;57.71
63395;BME280;49531;-34.520;150.798;2022-11-15T06:28:57;99768.31;;;22.51;57.52
63395;BME280;49531;-34.520;150.798;2022-11-15T06:31:25;99769.34;;;22.55;57.59
63395;BME280;49531;-34.520;150.798;2022-11-15T06:33:54;99770.38;;;22.59;57.37
63395;BME280;49531;-34.520;150.798;2022-11-15T06:36:22;99774.13;;;22.63;57.25
63395;BME280;49531;-34.520;150.798;2022-11-15T06:38:50;99770.00;;;22.66;57.36
63395;BME280;49531;-34.520;150.798;2022-11-15T06:41:18;99780.00;;;22.71;57.32
63395;BME280;49531;-34.520;150.798;2022-11-15T06:43:47;99789.19;;;22.75;57.33
63395;BME280;49531;-34.520;150.798;2022-11-15T06:46:15;99786.97;;;22.77;57.23
63395;BME280;49531;-34.520;150.798;2022-11-15T06:48:43;99783.38;;;22.81;57.08
63395;BME280;49531;-34.520;150.798;2022-11-15T06:51:12;99785.78;;;22.83;56.97
63395;BME280;49531;-34.520;150.798;2022-11-15T06:53:40;99786.00;;;22.86;57.06
63395;BME280;49531;-34.520;150.798;2022-11-15T06:56:08;99795.19;;;22.90;56.85
63395;BME280;49531;-34.520;150.798;2022-11-15T06:58:37;99792.19;;;22.92;57.06
63395;BME280;49531;-34.520;150.798;2022-11-15T07:01:07;99804.09;;;22.96;56.87
63395;BME280;49531;-34.520;150.798;2022-11-15T07:03:37;99795.91;;;22.96;56.91
63395;BME280;49531;-34.520;150.798;2022-11-15T07:06:07;99796.13;;;23.00;56.87
63395;BME280;49531;-34.520;150.798;2022-11-15T07:08:36;99802.09;;;23.02;56.65
63395;BME280;49531;-34.520;150.798;2022-11-15T07:11:06;99797.16;;;23.04;56.79
63395;BME280;49531;-34.520;150.798;2022-11-15T07:13:36;99805.03;;;23.05;56.41
63395;BME280;49531;-34.520;150.798;2022-11-15T07:16:07;99808.00;;;22.90;56.93
63395;BME280;49531;-34.520;150.798;2022-11-15T07:18:36;99819.84;;;22.99;56.65
63395;BME280;49531;-34.520;150.798;2022-11-15T07:21:07;99829.84;;;23.04;56.63
63395;BME280;49531;-34.520;150.798;2022-11-15T07:23:38;99825.72;;;23.06;56.45
63395;BME280;49531;-34.520;150.798;2022-11-15T07:26:07;99840.06;;;23.12;56.46
63395;BME280;49531;-34.520;150.798;2022-11-15T07:28:36;99834.31;;;23.13;56.45
63395;BME280;49531;-34.520;150.798;2022-11-15T07:31:05;99835.09;;;23.14;56.52
63395;BME280;49531;-34.520;150.798;2022-11-15T07:33:34;99836.72;;;23.15;56.20
63395;BME280;49531;-34.520;150.798;2022-11-15T07:36:04;99850.84;;;23.17;56.25
63395;BME280;49531;-34.520;150.798;2022-11-15T07:38:35;99857.94;;;23.18;56.44
63395;BME280;49531;-34.520;150.798;2022-11-15T07:41:04;99851.03;;;23.20;56.35
63395;BME280;49531;-34.520;150.798;2022-11-15T07:43:33;99863.56;;;23.21;56.20
63395;BME280;49531;-34.520;150.798;2022-11-15T07:46:07;99867.91;;;23.22;56.11
63395;BME280;49531;-34.520;150.798;2022-11-15T07:48:37;99872.25;;;23.23;56.14
63395;BME280;49531;-34.520;150.798;2022-11-15T07:51:10;99872.25;;;23.23;55.99
63395;BME280;49531;-34.520;150.798;2022-11-15T07:53:39;99874.66;;;23.25;55.84
63395;BME280;49531;-34.520;150.798;2022-11-15T07:56:08;99883.66;;;23.25;55.92
63395;BME280;49531;-34.520;150.798;2022-11-15T07:58:36;99885.25;;;23.26;55.81
63395;BME280;49531;-34.520;150.798;2022-11-15T08:01:06;99889.59;;;23.27;55.96
63395;BME280;49531;-34.520;150.798;2022-11-15T08:03:36;99889.59;;;23.27;55.80
63395;BME280;49531;-34.520;150.798;2022-11-15T08:06:04;99891.22;;;23.28;55.65
63395;BME280;49531;-34.520;150.798;2022-11-15T08:08:32;99908.38;;;23.29;55.52
63395;BME280;49531;-34.520;150.798;2022-11-15T08:11:01;99902.44;;;23.27;55.74
63395;BME280;49531;-34.520;150.798;2022-11-15T08:13:29;99915.44;;;23.30;55.78
63395;BME280;49531;-34.520;150.798;2022-11-15T08:15:59;99912.22;;;23.28;55.66
63395;BME280;49531;-34.520;150.798;2022-11-15T08:18:28;99917.06;;;23.31;55.66
63395;BME280;49531;-34.520;150.798;2022-11-15T08:20:59;99917.06;;;23.31;55.78
63395;BME280;49531;-34.520;150.798;2022-11-15T08:23:28;99917.88;;;23.32;55.52
63395;BME280;49531;-34.520;150.798;2022-11-15T08:26:02;99924.13;;;23.32;55.07
63395;BME280;49531;-34.520;150.798;2022-11-15T08:28:31;99923.34;;;23.32;55.41
63395;BME280;49531;-34.520;150.798;2022-11-15T08:30:59;99923.34;;;23.32;55.11
63395;BME280;49531;-34.520;150.798;2022-11-15T08:33:28;99929.59;;;23.32;55.06
63395;BME280;49531;-34.520;150.798;2022-11-15T08:35:59;99938.56;;;23.33;55.01
63395;BME280;49531;-34.520;150.798;2022-11-15T08:38:28;99932.63;;;23.31;55.02
63395;BME280;49531;-34.520;150.798;2022-11-15T08:41:03;99942.41;;;23.32;55.05
63395;BME280;49531;-34.520;150.798;2022-11-15T08:43:33;99956.03;;;23.32;54.74
63395;BME280;49531;-34.520;150.798;2022-11-15T08:46:01;99948.97;;;23.31;54.83
63395;BME280;49531;-34.520;150.798;2022-11-15T08:48:30;99955.22;;;23.31;54.82
63395;BME280;49531;-34.520;150.798;2022-11-15T08:50:58;99964.50;;;23.30;54.73
63395;BME280;49531;-34.520;150.798;2022-11-15T08:53:26;99971.88;;;23.29;54.82
63395;BME280;49531;-34.520;150.798;2022-11-15T08:55:54;99978.41;;;23.28;54.54
63395;BME280;49531;-34.520;150.798;2022-11-15T08:58:23;99975.19;;;23.26;54.75
63395;BME280;49531;-34.520;150.798;2022-11-15T09:00:51;99982.25;;;23.27;54.65
63395;BME280;49531;-34.520;150.798;2022-11-15T09:03:19;99980.63;;;23.26;54.49
63395;BME280;49531;-34.520;150.798;2022-11-15T09:05:47;99980.63;;;23.26;54.49
63395;BME280;49531;-34.520;150.798;2022-11-15T09:08:15;99985.28;;;23.26;54.75
63395;BME280;49531;-34.520;150.798;2022-11-15T09:10:43;100003.53;;;23.25;54.67
63395;BME280;49531;-34.520;150.798;2022-11-15T09:13:11;99993.75;;;23.24;54.49
63395;BME280;49531;-34.520;150.798;2022-11-15T09:15:40;99993.22;;;23.22;54.76
63395;BME280;49531;-34.520;150.798;2022-11-15T09:18:08;100000.41;;;23.18;54.49
63395;BME280;49531;-34.520;150.798;2022-11-15T09:20:36;100000.06;;;23.20;54.50
63395;BME280;49531;-34.520;150.798;2022-11-15T09:23:05;100000.41;;;23.18;54.35
63395;BME280;49531;-34.520;150.798;2022-11-15T09:25:33;100006.66;;;23.19;54.32
63395;BME280;49531;-34.520;150.798;2022-11-15T09:28:05;100014.31;;;23.17;54.21
63395;BME280;49531;-34.520;150.798;2022-11-15T09:30:34;100008.66;;;23.13;54.27
63395;BME280;49531;-34.520;150.798;2022-11-15T09:33:07;100000.25;;;23.10;53.57
63395;BME280;49531;-34.520;150.798;2022-11-15T09:35:36;100005.69;;;23.10;52.78
63395;BME280;49531;-34.520;150.798;2022-11-15T09:38:04;100005.19;;;23.08;52.43
63395;BME280;49531;-34.520;150.798;2022-11-15T09:40:34;100004.16;;;23.04;52.41
63395;BME280;49531;-34.520;150.798;2022-11-15T09:46:12;100031.97;;;23.01;51.09
63395;BME280;49531;-34.520;150.798;2022-11-15T09:48:54;100029.53;;;22.99;51.26
63395;BME280;49531;-34.520;150.798;2022-11-15T09:51:34;100028.22;;;22.97;51.13
63395;BME280;49531;-34.520;150.798;2022-11-15T09:54:28;100036.16;;;22.93;50.40
63395;BME280;49531;-34.520;150.798;2022-11-15T09:57:26;100049.25;;;22.91;50.10
63395;BME280;49531;-34.520;150.798;2022-11-15T10:00:07;100053.38;;;22.88;49.81
63395;BME280;49531;-34.520;150.798;2022-11-15T10:03:00;100060.22;;;22.86;48.82
63395;BME280;49531;-34.520;150.798;2022-11-15T10:05:31;100059.69;;;22.84;49.77
63395;BME280;49531;-34.520;150.798;2022-11-15T10:10:59;100061.44;;;22.75;47.84
63395;BME280;49531;-34.520;150.798;2022-11-15T10:13:34;100060.63;;;22.74;48.90
63395;BME280;49531;-34.520;150.798;2022-11-15T10:22:21;100081.66;;;22.69;48.11
63395;BME280;49531;-34.520;150.798;2022-11-15T10:25:06;100091.19;;;22.66;48.05
63395;BME280;49531;-34.520;150.798;2022-11-15T10:27:40;100084.44;;;22.63;48.07
63395;BME280;49531;-34.520;150.798;2022-11-15T10:30:13;100090.44;;;22.60;47.80
63395;BME280;49531;-34.520;150.798;2022-11-15T10:32:44;100095.88;;;22.60;48.02
63395;BME280;49531;-34.520;150.798;2022-11-15T10:35:24;100090.50;;;22.55;47.64
63395;BME280;49531;-34.520;150.798;2022-11-15T10:38:00;100098.16;;;22.53;47.82
63395;BME280;49531;-34.520;150.798;2022-11-15T10:40:32;100104.16;;;22.50;47.50
63395;BME280;49531;-34.520;150.798;2022-11-15T10:43:16;100093.56;;;22.49;47.68
63395;BME280;49531;-34.520;150.798;2022-11-15T10:45:46;100098.25;;;22.43;46.67
63395;BME280;49531;-34.520;150.798;2022-11-15T10:48:21;100104.56;;;22.39;46.65
63395;BME280;49531;-34.520;150.798;2022-11-15T10:50:51;100108.09;;;22.39;47.18
63395;BME280;49531;-34.520;150.798;2022-11-15T10:53:23;100096.19;;;22.35;45.83
63395;BME280;49531;-34.520;150.798;2022-11-15T10:55:57;100094.84;;;22.33;45.85
63395;BME280;49531;-34.520;150.798;2022-11-15T10:58:34;100110.34;;;22.32;46.08
63395;BME280;49531;-34.520;150.798;2022-11-15T11:01:17;100105.78;;;22.27;45.79
63395;BME280;49531;-34.520;150.798;2022-11-15T11:04:03;100106.34;;;22.24;45.65
63395;BME280;49531;-34.520;150.798;2022-11-15T11:06:48;100108.25;;;22.24;45.43
63395;BME280;49531;-34.520;150.798;2022-11-15T11:09:32;100118.59;;;22.22;45.56
63395;BME280;49531;-34.520;150.798;2022-11-15T11:12:02;100121.38;;;22.17;46.04
63395;BME280;49531;-34.520;150.798;2022-11-15T11:14:33;100118.13;;;22.15;45.02
63395;BME280;49531;-34.520;150.798;2022-11-15T11:17:17;100124.41;;;22.10;44.68
63395;BME280;49531;-34.520;150.798;2022-11-15T11:20:07;100120.63;;;22.06;45.41
63395;BME280;49531;-34.520;150.798;2022-11-15T11:26:01;100129.66;;;22.02;45.28
63395;BME280;49531;-34.520;150.798;2022-11-15T11:28:53;100134.03;;;21.98;44.94
63395;BME280;49531;-34.520;150.798;2022-11-15T11:31:44;100140.03;;;21.94;44.79
63395;BME280;49531;-34.520;150.798;2022-11-15T11:34:58;100139.22;;;21.94;45.28
63395;BME280;49531;-34.520;150.798;2022-11-15T11:37:47;100141.69;;;21.90;45.01
63395;BME280;49531;-34.520;150.798;2022-11-15T11:40:36;100144.97;;;21.87;44.96
63395;BME280;49531;-34.520;150.798;2022-11-15T11:43:18;100147.97;;;21.86;45.07
63395;BME280;49531;-34.520;150.798;2022-11-15T11:46:09;100148.53;;;21.83;44.56
63395;BME280;49531;-34.520;150.798;2022-11-15T11:48:44;100147.19;;;21.80;45.03
63395;BME280;49531;-34.520;150.798;2022-11-15T11:51:18;100148.84;;;21.76;45.11
63395;BME280;49531;-34.520;150.798;2022-11-15T11:54:05;100146.97;;;21.72;44.51
63395;BME280;49531;-34.520;150.798;2022-11-15T11:56:41;100148.34;;;21.69;44.78
63395;BME280;49531;-34.520;150.798;2022-11-15T11:59:56;100148.63;;;21.68;44.54
63395;BME280;49531;-34.520;150.798;2022-11-15T12:02:18;100149.75;;;21.61;44.42
63395;BME280;49531;-34.520;150.798;2022-11-15T12:04:53;100152.53;;;21.56;44.11
63395;BME280;49531;-34.520;150.798;2022-11-15T12:07:30;100151.19;;;21.54;44.08
63395;BME280;49531;-34.520;150.798;2022-11-15T12:13:04;100157.19;;;21.51;43.98
63395;BME280;49531;-34.520;150.798;2022-11-15T12:15:47;100155.84;;;21.48;44.17
63395;BME280;49531;-34.520;150.798;2022-11-15T12:18:18;100156.69;;;21.44;44.29
63395;BME280;49531;-34.520;150.798;2022-11-15T12:21:00;100155.06;;;21.38;43.09
63395;BME280;49531;-34.520;150.798;2022-11-15T12:23:41;100146.94;;;21.33;43.96
63395;BME280;49531;-34.520;150.798;2022-11-15T12:26:21;100143.41;;;21.32;43.96
63395;BME280;49531;-34.520;150.798;2022-11-15T12:28:55;100140.97;;;21.30;43.68
63395;BME280;49531;-34.520;150.798;2022-11-15T12:31:38;100143.72;;;21.25;43.61
63395;BME280;49531;-34.520;150.798;2022-11-15T12:37:47;100152.16;;;21.24;43.41
63395;BME280;49531;-34.520;150.798;2022-11-15T12:40:22;100158.69;;;21.18;43.15
63395;BME280;49531;-34.520;150.798;2022-11-15T12:45:49;100152.47;;;21.12;43.43
63395;BME280;49531;-34.520;150.798;2022-11-15T12:48:47;100155.19;;;21.12;43.50
63395;BME280;49531;-34.520;150.798;2022-11-15T12:51:16;100151.38;;;21.08;43.33
63395;BME280;49531;-34.520;150.798;2022-11-15T12:53:44;100150.31;;;21.04;43.73
63395;BME280;49531;-34.520;150.798;2022-11-15T12:56:21;100150.31;;;21.04;43.39
63395;BME280;49531;-34.520;150.798;2022-11-15T12:58:55;100147.63;;;20.99;43.31
63395;BME280;49531;-34.520;150.798;2022-11-15T13:01:54;100154.41;;;20.96;43.14
63395;BME280;49531;-34.520;150.798;2022-11-15T13:04:25;100159.31;;;20.94;42.89
63395;BME280;49531;-34.520;150.798;2022-11-15T13:07:01;100151.72;;;20.91;43.19
63395;BME280;49531;-34.520;150.798;2022-11-15T13:09:50;100147.91;;;20.87;43.46
63395;BME280;49531;-34.520;150.798;2022-11-15T13:15:35;100154.19;;;20.83;43.40
63395;BME280;49531;-34.520;150.798;2022-11-15T13:20:55;100148.50;;;20.79;43.55
63395;BME280;49531;-34.520;150.798;2022-11-15T13:23:23;100145.53;;;20.76;43.55
63395;BME280;49531;-34.520;150.798;2022-11-15T13:26:13;100135.50;;;20.71;43.44
63395;BME280;49531;-34.520;150.798;2022-11-15T13:28:47;100134.97;;;20.69;43.54
63395;BME280;49531;-34.520;150.798;2022-11-15T13:31:26;100133.63;;;20.67;43.69
63395;BME280;49531;-34.520;150.798;2022-11-15T13:33:59;100128.75;;;20.63;43.51
63395;BME280;49531;-34.520;150.798;2022-11-15T13:36:31;100127.38;;;20.61;43.33
63395;BME280;49531;-34.520;150.798;2022-11-15T13:39:04;100131.47;;;20.58;43.42
63395;BME280;49531;-34.520;150.798;2022-11-15T13:41:34;100123.88;;;20.55;43.43
63395;BME280;49531;-34.520;150.798;2022-11-15T13:44:04;100119.81;;;20.53;43.23